sensor_id;sensor_type;location;lat;lon;timestamp;P1;durP1;ratioP1;P2;durP2;ratioP2
49488;SDS011;35382;51.484;11.476;2023-10-09T00:00:25;6.78;;;3.78;;
49488;SDS011;35382;51.484;11.476;2023-10-09T00:02:50;7.07;;;3.70;;
49488;SDS011;35382;51.484;11.476;2023-10-09T00:05:16;6.45;;;3.38;;
49488;SDS011;35382;51.484;11.476;2023-10-09T00:07:41;5.90;;;3.30;;
49488;SDS011;35382;51.484;11.476;2023-10-09T00:10:07;5.93;;;3.40;;
49488;SDS011;35382;51.484;11.476;2023-10-09T00:12:32;6.30;;;3.22;;
49488;SDS011;35382;51.484;11.476;2023-10-09T00:14:58;7.82;;;3.45;;
49488;SDS011;35382;51.484;11.476;2023-10-09T00:17:23;6.80;;;3.45;;
49488;SDS011;35382;51.484;11.476;2023-10-09T00:19:49;8.05;;;4.05;;
49488;SDS011;35382;51.484;11.476;2023-10-09T00:22:15;7.13;;;3.45;;
49488;SDS011;35382;51.484;11.476;2023-10-09T00:24:40;6.80;;;3.50;;
49488;SDS011;35382;51.484;11.476;2023-10-09T00:27:06;8.05;;;3.85;;
49488;SDS011;35382;51.484;11.476;2023-10-09T00:29:31;6.97;;;3.78;;
49488;SDS011;35382;51.484;11.476;2023-10-09T00:31:59;5.88;;;3.47;;
49488;SDS011;35382;51.484;11.476;2023-10-09T00:34:24;7.22;;;3.60;;
49488;SDS011;35382;51.484;11.476;2023-10-09T00:36:50;7.88;;;3.63;;
49488;SDS011;35382;51.484;11.476;2023-10-09T00:39:18;7.15;;;3.85;;
49488;SDS011;35382;51.484;11.476;2023-10-09T00:41:44;7.70;;;4.07;;
49488;SDS011;35382;51.484;11.476;2023-10-09T00:44:09;8.50;;;3.90;;
49488;SDS011;35382;51.484;11.476;2023-10-09T00:46:34;5.55;;;3.78;;
49488;SDS011;35382;51.484;11.476;2023-10-09T00:49:00;6.57;;;3.60;;
49488;SDS011;35382;51.484;11.476;2023-10-09T00:51:26;6.32;;;3.83;;
49488;SDS011;35382;51.484;11.476;2023-10-09T00:53:53;6.45;;;3.55;;
49488;SDS011;35382;51.484;11.476;2023-10-09T00:56:21;7.65;;;3.92;;
49488;SDS011;35382;51.484;11.476;2023-10-09T00:58:47;6.97;;;3.85;;
49488;SDS011;35382;51.484;11.476;2023-10-09T01:01:17;6.55;;;3.40;;
49488;SDS011;35382;51.484;11.476;2023-10-09T01:03:43;7.32;;;3.65;;
49488;SDS011;35382;51.484;11.476;2023-10-09T01:06:08;11.15;;;3.92;;
49488;SDS011;35382;51.484;11.476;2023-10-09T01:08:34;8.05;;;4.13;;
49488;SDS011;35382;51.484;11.476;2023-10-09T01:11:00;6.85;;;3.80;;
49488;SDS011;35382;51.484;11.476;2023-10-09T01:13:25;8.13;;;4.13;;
49488;SDS011;35382;51.484;11.476;2023-10-09T01:15:51;7.15;;;4.15;;
49488;SDS011;35382;51.484;11.476;2023-10-09T01:18:16;9.07;;;4.10;;
49488;SDS011;35382;51.484;11.476;2023-10-09T01:20:42;7.13;;;4.13;;
49488;SDS011;35382;51.484;11.476;2023-10-09T01:23:08;9.48;;;4.20;;
49488;SDS011;35382;51.484;11.476;2023-10-09T01:25:36;6.38;;;3.80;;
49488;SDS011;35382;51.484;11.476;2023-10-09T01:28:02;6.95;;;3.72;;
49488;SDS011;35382;51.484;11.476;2023-10-09T01:30:28;7.15;;;4.40;;
49488;SDS011;35382;51.484;11.476;2023-10-09T01:32:53;8.23;;;3.47;;
49488;SDS011;35382;51.484;11.476;2023-10-09T01:35:18;6.20;;;3.50;;
49488;SDS011;35382;51.484;11.476;2023-10-09T01:37:44;7.13;;;3.72;;
49488;SDS011;35382;51.484;11.476;2023-10-09T01:40:09;7.35;;;3.75;;
49488;SDS011;35382;51.484;11.476;2023-10-09T01:42:35;7.00;;;3.88;;
49488;SDS011;35382;51.484;11.476;2023-10-09T01:45:00;8.88;;;4.05;;
49488;SDS011;35382;51.484;11.476;2023-10-09T01:47:26;6.82;;;3.88;;
49488;SDS011;35382;51.484;11.476;2023-10-09T01:49:52;6.13;;;3.78;;
49488;SDS011;35382;51.484;11.476;2023-10-09T01:52:17;7.57;;;4.43;;
49488;SDS011;35382;51.484;11.476;2023-10-09T01:54:46;11.88;;;4.85;;
49488;SDS011;35382;51.484;11.476;2023-10-09T01:57:12;7.97;;;4.50;;
49488;SDS011;35382;51.484;11.476;2023-10-09T01:59:39;10.30;;;4.45;;
49488;SDS011;35382;51.484;11.476;2023-10-09T02:02:05;7.55;;;4.18;;
49488;SDS011;35382;51.484;11.476;2023-10-09T02:04:30;6.43;;;3.80;;
49488;SDS011;35382;51.484;11.476;2023-10-09T02:06:55;6.60;;;3.90;;
49488;SDS011;35382;51.484;11.476;2023-10-09T02:09:21;8.15;;;4.05;;
49488;SDS011;35382;51.484;11.476;2023-10-09T02:11:46;7.72;;;3.97;;
49488;SDS011;35382;51.484;11.476;2023-10-09T02:14:12;6.45;;;3.72;;
49488;SDS011;35382;51.484;11.476;2023-10-09T02:16:37;6.20;;;3.72;;
49488;SDS011;35382;51.484;11.476;2023-10-09T02:19:02;7.45;;;4.00;;
49488;SDS011;35382;51.484;11.476;2023-10-09T02:21:28;6.75;;;3.83;;
49488;SDS011;35382;51.484;11.476;2023-10-09T02:23:53;8.90;;;4.47;;
49488;SDS011;35382;51.484;11.476;2023-10-09T02:26:19;6.95;;;3.92;;
49488;SDS011;35382;51.484;11.476;2023-10-09T02:28:45;6.55;;;3.78;;
49488;SDS011;35382;51.484;11.476;2023-10-09T02:31:11;7.57;;;3.90;;
49488;SDS011;35382;51.484;11.476;2023-10-09T02:33:37;8.07;;;3.60;;
49488;SDS011;35382;51.484;11.476;2023-10-09T02:36:03;7.00;;;3.15;;
49488;SDS011;35382;51.484;11.476;2023-10-09T02:38:28;7.40;;;3.45;;
49488;SDS011;35382;51.484;11.476;2023-10-09T02:40:54;8.30;;;3.38;;
49488;SDS011;35382;51.484;11.476;2023-10-09T02:43:19;6.53;;;3.47;;
49488;SDS011;35382;51.484;11.476;2023-10-09T02:45:46;9.10;;;4.03;;
49488;SDS011;35382;51.484;11.476;2023-10-09T02:48:12;9.10;;;3.83;;
49488;SDS011;35382;51.484;11.476;2023-10-09T02:50:37;7.10;;;4.30;;
49488;SDS011;35382;51.484;11.476;2023-10-09T02:53:03;6.05;;;3.80;;
49488;SDS011;35382;51.484;11.476;2023-10-09T02:55:28;7.90;;;4.35;;
49488;SDS011;35382;51.484;11.476;2023-10-09T02:57:54;8.35;;;4.22;;
49488;SDS011;35382;51.484;11.476;2023-10-09T03:00:19;8.07;;;4.05;;
49488;SDS011;35382;51.484;11.476;2023-10-09T03:02:45;7.72;;;4.20;;
49488;SDS011;35382;51.484;11.476;2023-10-09T03:05:11;8.50;;;4.95;;
49488;SDS011;35382;51.484;11.476;2023-10-09T03:07:36;12.25;;;5.18;;
49488;SDS011;35382;51.484;11.476;2023-10-09T03:10:02;7.47;;;4.95;;
49488;SDS011;35382;51.484;11.476;2023-10-09T03:12:27;8.95;;;4.90;;
49488;SDS011;35382;51.484;11.476;2023-10-09T03:14:53;6.80;;;4.80;;
49488;SDS011;35382;51.484;11.476;2023-10-09T03:17:19;7.13;;;4.50;;
49488;SDS011;35382;51.484;11.476;2023-10-09T03:19:45;8.57;;;4.65;;
49488;SDS011;35382;51.484;11.476;2023-10-09T03:22:10;8.85;;;4.10;;
49488;SDS011;35382;51.484;11.476;2023-10-09T03:24:38;7.13;;;4.30;;
49488;SDS011;35382;51.484;11.476;2023-10-09T03:27:04;7.03;;;4.15;;
49488;SDS011;35382;51.484;11.476;2023-10-09T03:29:30;7.28;;;4.47;;
49488;SDS011;35382;51.484;11.476;2023-10-09T03:31:55;7.72;;;3.90;;
49488;SDS011;35382;51.484;11.476;2023-10-09T03:34:20;8.38;;;4.45;;
49488;SDS011;35382;51.484;11.476;2023-10-09T03:36:46;6.97;;;4.50;;
49488;SDS011;35382;51.484;11.476;2023-10-09T03:39:12;8.57;;;4.50;;
49488;SDS011;35382;51.484;11.476;2023-10-09T03:41:37;7.82;;;4.70;;
49488;SDS011;35382;51.484;11.476;2023-10-09T03:44:03;10.05;;;4.55;;
49488;SDS011;35382;51.484;11.476;2023-10-09T03:46:28;6.93;;;4.40;;
49488;SDS011;35382;51.484;11.476;2023-10-09T03:48:54;8.77;;;4.65;;
49488;SDS011;35382;51.484;11.476;2023-10-09T03:51:19;7.70;;;4.57;;
49488;SDS011;35382;51.484;11.476;2023-10-09T03:53:45;8.35;;;4.93;;
49488;SDS011;35382;51.484;11.476;2023-10-09T03:56:10;8.93;;;4.78;;
49488;SDS011;35382;51.484;11.476;2023-10-09T03:58:35;10.50;;;4.78;;
49488;SDS011;35382;51.484;11.476;2023-10-09T04:01:01;8.32;;;4.35;;
49488;SDS011;35382;51.484;11.476;2023-10-09T04:03:35;8.50;;;4.65;;
49488;SDS011;35382;51.484;11.476;2023-10-09T04:06:01;11.57;;;4.72;;
49488;SDS011;35382;51.484;11.476;2023-10-09T04:08:26;9.07;;;4.68;;
49488;SDS011;35382;51.484;11.476;2023-10-09T04:10:51;7.93;;;4.68;;
49488;SDS011;35382;51.484;11.476;2023-10-09T04:13:18;9.20;;;5.07;;
49488;SDS011;35382;51.484;11.476;2023-10-09T04:15:44;8.40;;;4.72;;
49488;SDS011;35382;51.484;11.476;2023-10-09T04:18:09;9.02;;;5.05;;
49488;SDS011;35382;51.484;11.476;2023-10-09T04:20:34;9.07;;;5.05;;
49488;SDS011;35382;51.484;11.476;2023-10-09T04:23:00;11.68;;;5.90;;
49488;SDS011;35382;51.484;11.476;2023-10-09T04:25:25;10.13;;;5.78;;
49488;SDS011;35382;51.484;11.476;2023-10-09T04:27:54;11.10;;;5.85;;
49488;SDS011;35382;51.484;11.476;2023-10-09T04:30:20;10.00;;;6.40;;
49488;SDS011;35382;51.484;11.476;2023-10-09T04:32:46;14.23;;;6.22;;
49488;SDS011;35382;51.484;11.476;2023-10-09T04:35:11;11.82;;;6.93;;
49488;SDS011;35382;51.484;11.476;2023-10-09T04:37:37;11.15;;;6.72;;
49488;SDS011;35382;51.484;11.476;2023-10-09T04:40:08;10.73;;;6.85;;
49488;SDS011;35382;51.484;11.476;2023-10-09T04:42:33;13.35;;;7.47;;
49488;SDS011;35382;51.484;11.476;2023-10-09T04:44:59;12.82;;;6.78;;
49488;SDS011;35382;51.484;11.476;2023-10-09T04:47:25;10.25;;;6.45;;
49488;SDS011;35382;51.484;11.476;2023-10-09T04:49:51;11.88;;;6.28;;
49488;SDS011;35382;51.484;11.476;2023-10-09T04:52:17;9.98;;;6.18;;
49488;SDS011;35382;51.484;11.476;2023-10-09T04:54:43;9.98;;;5.63;;
49488;SDS011;35382;51.484;11.476;2023-10-09T04:57:09;9.73;;;5.82;;
49488;SDS011;35382;51.484;11.476;2023-10-09T04:59:34;10.65;;;6.00;;
49488;SDS011;35382;51.484;11.476;2023-10-09T05:01:59;9.85;;;6.13;;
49488;SDS011;35382;51.484;11.476;2023-10-09T05:04:25;10.35;;;6.18;;
49488;SDS011;35382;51.484;11.476;2023-10-09T05:06:50;10.77;;;6.68;;
49488;SDS011;35382;51.484;11.476;2023-10-09T05:09:16;10.10;;;5.75;;
49488;SDS011;35382;51.484;11.476;2023-10-09T05:11:41;9.38;;;5.57;;
49488;SDS011;35382;51.484;11.476;2023-10-09T05:14:09;9.25;;;5.63;;
49488;SDS011;35382;51.484;11.476;2023-10-09T05:16:34;10.63;;;4.85;;
49488;SDS011;35382;51.484;11.476;2023-10-09T05:19:00;9.40;;;5.03;;
49488;SDS011;35382;51.484;11.476;2023-10-09T05:21:29;9.35;;;4.40;;
49488;SDS011;35382;51.484;11.476;2023-10-09T05:23:57;7.85;;;4.57;;
49488;SDS011;35382;51.484;11.476;2023-10-09T05:26:26;9.20;;;5.00;;
49488;SDS011;35382;51.484;11.476;2023-10-09T05:28:51;7.50;;;4.75;;
49488;SDS011;35382;51.484;11.476;2023-10-09T05:31:16;9.88;;;4.95;;
49488;SDS011;35382;51.484;11.476;2023-10-09T05:33:42;9.55;;;5.43;;
49488;SDS011;35382;51.484;11.476;2023-10-09T05:36:07;10.40;;;4.95;;
49488;SDS011;35382;51.484;11.476;2023-10-09T05:38:33;15.20;;;5.78;;
49488;SDS011;35382;51.484;11.476;2023-10-09T05:40:58;10.45;;;5.18;;
49488;SDS011;35382;51.484;11.476;2023-10-09T05:43:24;16.13;;;5.38;;
49488;SDS011;35382;51.484;11.476;2023-10-09T05:45:49;11.07;;;5.47;;
49488;SDS011;35382;51.484;11.476;2023-10-09T05:48:15;10.68;;;5.25;;
49488;SDS011;35382;51.484;11.476;2023-10-09T05:50:40;11.23;;;5.13;;
49488;SDS011;35382;51.484;11.476;2023-10-09T05:53:06;10.68;;;5.93;;
49488;SDS011;35382;51.484;11.476;2023-10-09T05:55:31;11.23;;;6.07;;
49488;SDS011;35382;51.484;11.476;2023-10-09T05:57:57;15.13;;;6.03;;
49488;SDS011;35382;51.484;11.476;2023-10-09T06:00:23;10.95;;;5.75;;
49488;SDS011;35382;51.484;11.476;2023-10-09T06:02:48;12.93;;;6.45;;
49488;SDS011;35382;51.484;11.476;2023-10-09T06:05:14;12.13;;;6.13;;
49488;SDS011;35382;51.484;11.476;2023-10-09T06:07:39;13.48;;;6.57;;
49488;SDS011;35382;51.484;11.476;2023-10-09T06:10:05;11.32;;;6.00;;
49488;SDS011;35382;51.484;11.476;2023-10-09T06:12:30;11.65;;;6.38;;
49488;SDS011;35382;51.484;11.476;2023-10-09T06:14:56;11.63;;;5.22;;
49488;SDS011;35382;51.484;11.476;2023-10-09T06:17:21;12.75;;;5.70;;
49488;SDS011;35382;51.484;11.476;2023-10-09T06:19:47;12.50;;;6.18;;
49488;SDS011;35382;51.484;11.476;2023-10-09T06:22:12;13.65;;;5.78;;
49488;SDS011;35382;51.484;11.476;2023-10-09T06:24:38;9.88;;;5.45;;
49488;SDS011;35382;51.484;11.476;2023-10-09T06:27:04;10.10;;;5.03;;
49488;SDS011;35382;51.484;11.476;2023-10-09T06:29:29;9.55;;;5.03;;
49488;SDS011;35382;51.484;11.476;2023-10-09T06:31:55;10.02;;;5.53;;
49488;SDS011;35382;51.484;11.476;2023-10-09T06:34:20;8.30;;;5.50;;
49488;SDS011;35382;51.484;11.476;2023-10-09T06:36:46;9.32;;;5.28;;
49488;SDS011;35382;51.484;11.476;2023-10-09T06:39:11;10.52;;;5.43;;
49488;SDS011;35382;51.484;11.476;2023-10-09T06:41:36;12.25;;;5.30;;
49488;SDS011;35382;51.484;11.476;2023-10-09T06:44:02;10.95;;;6.18;;
49488;SDS011;35382;51.484;11.476;2023-10-09T06:46:28;11.35;;;6.63;;
49488;SDS011;35382;51.484;11.476;2023-10-09T06:48:53;14.18;;;6.10;;
49488;SDS011;35382;51.484;11.476;2023-10-09T06:51:18;13.60;;;6.65;;
49488;SDS011;35382;51.484;11.476;2023-10-09T06:53:44;14.00;;;7.43;;
49488;SDS011;35382;51.484;11.476;2023-10-09T06:56:10;10.85;;;6.18;;
49488;SDS011;35382;51.484;11.476;2023-10-09T06:58:35;15.52;;;7.20;;
49488;SDS011;35382;51.484;11.476;2023-10-09T07:01:00;15.27;;;7.25;;
49488;SDS011;35382;51.484;11.476;2023-10-09T07:03:28;13.35;;;6.85;;
49488;SDS011;35382;51.484;11.476;2023-10-09T07:06:02;15.48;;;7.03;;
49488;SDS011;35382;51.484;11.476;2023-10-09T07:08:28;14.45;;;6.75;;
49488;SDS011;35382;51.484;11.476;2023-10-09T07:10:54;16.55;;;7.30;;
49488;SDS011;35382;51.484;11.476;2023-10-09T07:13:20;12.00;;;6.47;;
49488;SDS011;35382;51.484;11.476;2023-10-09T07:15:47;13.07;;;7.07;;
49488;SDS011;35382;51.484;11.476;2023-10-09T07:18:12;12.60;;;7.03;;
49488;SDS011;35382;51.484;11.476;2023-10-09T07:20:38;15.43;;;8.02;;
49488;SDS011;35382;51.484;11.476;2023-10-09T07:23:03;12.73;;;7.30;;
49488;SDS011;35382;51.484;11.476;2023-10-09T07:25:29;12.15;;;7.40;;
49488;SDS011;35382;51.484;11.476;2023-10-09T07:27:54;15.73;;;7.90;;
49488;SDS011;35382;51.484;11.476;2023-10-09T07:30:20;14.85;;;8.52;;
49488;SDS011;35382;51.484;11.476;2023-10-09T07:32:46;14.18;;;8.45;;
49488;SDS011;35382;51.484;11.476;2023-10-09T07:35:12;20.80;;;8.73;;
49488;SDS011;35382;51.484;11.476;2023-10-09T07:37:37;22.05;;;9.20;;
49488;SDS011;35382;51.484;11.476;2023-10-09T07:40:02;16.00;;;8.27;;
49488;SDS011;35382;51.484;11.476;2023-10-09T07:42:28;17.35;;;8.77;;
49488;SDS011;35382;51.484;11.476;2023-10-09T07:44:56;13.80;;;8.23;;
49488;SDS011;35382;51.484;11.476;2023-10-09T07:47:21;18.92;;;9.18;;
49488;SDS011;35382;51.484;11.476;2023-10-09T07:49:47;14.63;;;8.05;;
49488;SDS011;35382;51.484;11.476;2023-10-09T07:52:12;16.02;;;8.55;;
49488;SDS011;35382;51.484;11.476;2023-10-09T07:54:37;13.45;;;7.25;;
49488;SDS011;35382;51.484;11.476;2023-10-09T07:57:03;13.48;;;7.80;;
49488;SDS011;35382;51.484;11.476;2023-10-09T07:59:28;14.43;;;8.52;;
49488;SDS011;35382;51.484;11.476;2023-10-09T08:01:54;15.18;;;8.20;;
49488;SDS011;35382;51.484;11.476;2023-10-09T08:04:22;14.38;;;7.65;;
49488;SDS011;35382;51.484;11.476;2023-10-09T08:06:49;17.73;;;8.00;;
49488;SDS011;35382;51.484;11.476;2023-10-09T08:09:14;15.35;;;8.35;;
49488;SDS011;35382;51.484;11.476;2023-10-09T08:11:44;14.70;;;8.50;;
49488;SDS011;35382;51.484;11.476;2023-10-09T08:14:14;17.83;;;8.85;;
49488;SDS011;35382;51.484;11.476;2023-10-09T08:16:39;16.63;;;9.40;;
49488;SDS011;35382;51.484;11.476;2023-10-09T08:19:05;15.55;;;8.50;;
49488;SDS011;35382;51.484;11.476;2023-10-09T08:21:30;19.42;;;9.93;;
49488;SDS011;35382;51.484;11.476;2023-10-09T08:23:56;20.88;;;11.20;;
49488;SDS011;35382;51.484;11.476;2023-10-09T08:26:21;22.85;;;12.05;;
49488;SDS011;35382;51.484;11.476;2023-10-09T08:28:46;18.08;;;10.48;;
49488;SDS011;35382;51.484;11.476;2023-10-09T08:31:12;20.13;;;10.80;;
49488;SDS011;35382;51.484;11.476;2023-10-09T08:33:38;19.15;;;10.52;;
49488;SDS011;35382;51.484;11.476;2023-10-09T08:36:04;19.40;;;11.70;;
49488;SDS011;35382;51.484;11.476;2023-10-09T08:38:29;20.55;;;12.35;;
49488;SDS011;35382;51.484;11.476;2023-10-09T08:40:54;27.98;;;14.18;;
49488;SDS011;35382;51.484;11.476;2023-10-09T08:43:23;26.50;;;14.90;;
49488;SDS011;35382;51.484;11.476;2023-10-09T08:45:50;26.92;;;14.23;;
49488;SDS011;35382;51.484;11.476;2023-10-09T08:48:18;28.17;;;15.10;;
49488;SDS011;35382;51.484;11.476;2023-10-09T08:50:45;27.27;;;15.23;;
49488;SDS011;35382;51.484;11.476;2023-10-09T08:53:11;24.27;;;14.13;;
49488;SDS011;35382;51.484;11.476;2023-10-09T08:55:38;27.48;;;14.38;;
49488;SDS011;35382;51.484;11.476;2023-10-09T08:58:04;26.30;;;14.45;;
49488;SDS011;35382;51.484;11.476;2023-10-09T09:00:30;26.45;;;14.70;;
49488;SDS011;35382;51.484;11.476;2023-10-09T09:02:57;27.23;;;15.45;;
49488;SDS011;35382;51.484;11.476;2023-10-09T09:05:22;28.77;;;15.70;;
49488;SDS011;35382;51.484;11.476;2023-10-09T09:07:48;30.92;;;14.98;;
49488;SDS011;35382;51.484;11.476;2023-10-09T09:10:17;29.88;;;15.45;;
49488;SDS011;35382;51.484;11.476;2023-10-09T09:12:52;30.25;;;16.02;;
49488;SDS011;35382;51.484;11.476;2023-10-09T09:15:17;30.90;;;16.58;;
49488;SDS011;35382;51.484;11.476;2023-10-09T09:17:42;32.15;;;17.98;;
49488;SDS011;35382;51.484;11.476;2023-10-09T09:20:21;32.40;;;15.90;;
49488;SDS011;35382;51.484;11.476;2023-10-09T09:22:53;33.22;;;16.45;;
49488;SDS011;35382;51.484;11.476;2023-10-09T09:25:19;30.23;;;17.30;;
49488;SDS011;35382;51.484;11.476;2023-10-09T09:27:45;35.30;;;18.20;;
49488;SDS011;35382;51.484;11.476;2023-10-09T09:30:22;36.55;;;18.10;;
49488;SDS011;35382;51.484;11.476;2023-10-09T09:32:48;30.20;;;17.48;;
49488;SDS011;35382;51.484;11.476;2023-10-09T09:35:14;34.95;;;18.60;;
49488;SDS011;35382;51.484;11.476;2023-10-09T09:37:39;31.60;;;17.55;;
49488;SDS011;35382;51.484;11.476;2023-10-09T09:40:04;33.67;;;19.27;;
49488;SDS011;35382;51.484;11.476;2023-10-09T09:42:30;32.55;;;17.65;;
49488;SDS011;35382;51.484;11.476;2023-10-09T09:44:58;29.48;;;17.92;;
49488;SDS011;35382;51.484;11.476;2023-10-09T09:47:25;34.53;;;18.90;;
49488;SDS011;35382;51.484;11.476;2023-10-09T09:49:52;33.50;;;19.20;;
49488;SDS011;35382;51.484;11.476;2023-10-09T09:52:18;33.53;;;17.80;;
49488;SDS011;35382;51.484;11.476;2023-10-09T09:54:44;35.58;;;18.73;;
49488;SDS011;35382;51.484;11.476;2023-10-09T09:57:09;35.53;;;19.10;;
49488;SDS011;35382;51.484;11.476;2023-10-09T09:59:39;40.58;;;20.95;;
49488;SDS011;35382;51.484;11.476;2023-10-09T10:02:05;35.85;;;18.92;;
49488;SDS011;35382;51.484;11.476;2023-10-09T10:04:35;35.45;;;18.85;;
49488;SDS011;35382;51.484;11.476;2023-10-09T10:07:04;35.63;;;19.05;;
49488;SDS011;35382;51.484;11.476;2023-10-09T10:09:34;33.45;;;18.70;;
49488;SDS011;35382;51.484;11.476;2023-10-09T10:12:04;32.67;;;18.60;;
49488;SDS011;35382;51.484;11.476;2023-10-09T10:14:31;32.20;;;19.67;;
49488;SDS011;35382;51.484;11.476;2023-10-09T10:17:19;34.92;;;18.48;;
49488;SDS011;35382;51.484;11.476;2023-10-09T10:22:25;30.88;;;18.25;;
49488;SDS011;35382;51.484;11.476;2023-10-09T10:24:51;35.20;;;18.35;;
49488;SDS011;35382;51.484;11.476;2023-10-09T10:27:17;32.55;;;18.75;;
49488;SDS011;35382;51.484;11.476;2023-10-09T10:29:43;39.10;;;19.00;;
49488;SDS011;35382;51.484;11.476;2023-10-09T10:32:10;34.58;;;18.80;;
49488;SDS011;35382;51.484;11.476;2023-10-09T10:34:51;30.65;;;19.08;;
49488;SDS011;35382;51.484;11.476;2023-10-09T10:37:17;29.10;;;18.73;;
49488;SDS011;35382;51.484;11.476;2023-10-09T10:39:49;33.90;;;18.80;;
49488;SDS011;35382;51.484;11.476;2023-10-09T10:42:18;29.20;;;17.80;;
49488;SDS011;35382;51.484;11.476;2023-10-09T10:44:43;31.02;;;19.52;;
49488;SDS011;35382;51.484;11.476;2023-10-09T10:47:09;31.30;;;18.92;;
49488;SDS011;35382;51.484;11.476;2023-10-09T10:49:36;31.15;;;18.92;;
49488;SDS011;35382;51.484;11.476;2023-10-09T10:52:02;37.58;;;19.95;;
49488;SDS011;35382;51.484;11.476;2023-10-09T10:54:32;33.15;;;18.60;;
49488;SDS011;35382;51.484;11.476;2023-10-09T10:56:57;29.20;;;16.85;;
49488;SDS011;35382;51.484;11.476;2023-10-09T10:59:23;31.52;;;17.02;;
49488;SDS011;35382;51.484;11.476;2023-10-09T11:01:49;33.15;;;18.45;;
49488;SDS011;35382;51.484;11.476;2023-10-09T11:04:15;31.97;;;19.10;;
49488;SDS011;35382;51.484;11.476;2023-10-09T11:06:41;38.40;;;19.90;;
49488;SDS011;35382;51.484;11.476;2023-10-09T11:09:07;32.85;;;18.73;;
49488;SDS011;35382;51.484;11.476;2023-10-09T11:14:12;27.77;;;17.10;;
49488;SDS011;35382;51.484;11.476;2023-10-09T11:16:38;31.75;;;18.30;;
49488;SDS011;35382;51.484;11.476;2023-10-09T11:19:04;35.60;;;20.02;;
49488;SDS011;35382;51.484;11.476;2023-10-09T11:21:29;36.03;;;20.80;;
49488;SDS011;35382;51.484;11.476;2023-10-09T11:23:55;33.78;;;19.77;;
49488;SDS011;35382;51.484;11.476;2023-10-09T11:26:20;34.17;;;20.10;;
49488;SDS011;35382;51.484;11.476;2023-10-09T11:28:47;31.85;;;18.77;;
49488;SDS011;35382;51.484;11.476;2023-10-09T11:31:40;30.67;;;17.73;;
49488;SDS011;35382;51.484;11.476;2023-10-09T11:36:44;27.98;;;17.67;;
49488;SDS011;35382;51.484;11.476;2023-10-09T11:39:12;30.10;;;17.73;;
49488;SDS011;35382;51.484;11.476;2023-10-09T11:41:49;31.17;;;17.80;;
49488;SDS011;35382;51.484;11.476;2023-10-09T11:44:15;29.17;;;16.98;;
49488;SDS011;35382;51.484;11.476;2023-10-09T11:46:41;29.83;;;16.90;;
49488;SDS011;35382;51.484;11.476;2023-10-09T11:49:22;32.50;;;18.08;;
49488;SDS011;35382;51.484;11.476;2023-10-09T11:51:48;33.92;;;16.98;;
49488;SDS011;35382;51.484;11.476;2023-10-09T11:54:28;35.75;;;19.23;;
49488;SDS011;35382;51.484;11.476;2023-10-09T11:56:55;33.60;;;17.88;;
49488;SDS011;35382;51.484;11.476;2023-10-09T11:59:20;29.95;;;18.27;;
49488;SDS011;35382;51.484;11.476;2023-10-09T12:01:46;32.63;;;18.33;;
49488;SDS011;35382;51.484;11.476;2023-10-09T12:04:11;36.72;;;19.98;;
49488;SDS011;35382;51.484;11.476;2023-10-09T12:06:37;34.80;;;18.92;;
49488;SDS011;35382;51.484;11.476;2023-10-09T12:09:02;38.42;;;20.88;;
49488;SDS011;35382;51.484;11.476;2023-10-09T12:11:28;33.63;;;19.13;;
49488;SDS011;35382;51.484;11.476;2023-10-09T12:13:53;31.05;;;17.83;;
49488;SDS011;35382;51.484;11.476;2023-10-09T12:16:18;31.05;;;17.95;;
49488;SDS011;35382;51.484;11.476;2023-10-09T12:18:44;33.25;;;17.98;;
49488;SDS011;35382;51.484;11.476;2023-10-09T12:21:09;30.20;;;17.67;;
49488;SDS011;35382;51.484;11.476;2023-10-09T12:23:34;32.20;;;17.45;;
49488;SDS011;35382;51.484;11.476;2023-10-09T12:26:00;31.17;;;17.45;;
49488;SDS011;35382;51.484;11.476;2023-10-09T12:28:25;31.20;;;17.33;;
49488;SDS011;35382;51.484;11.476;2023-10-09T12:30:51;30.52;;;17.05;;
49488;SDS011;35382;51.484;11.476;2023-10-09T12:33:16;31.88;;;17.15;;
49488;SDS011;35382;51.484;11.476;2023-10-09T12:35:43;29.48;;;16.58;;
49488;SDS011;35382;51.484;11.476;2023-10-09T12:38:08;29.05;;;16.40;;
49488;SDS011;35382;51.484;11.476;2023-10-09T12:40:34;27.48;;;16.38;;
49488;SDS011;35382;51.484;11.476;2023-10-09T12:43:00;23.80;;;14.43;;
49488;SDS011;35382;51.484;11.476;2023-10-09T12:45:26;26.25;;;14.13;;
49488;SDS011;35382;51.484;11.476;2023-10-09T12:47:54;21.45;;;12.75;;
49488;SDS011;35382;51.484;11.476;2023-10-09T12:50:20;23.23;;;12.90;;
49488;SDS011;35382;51.484;11.476;2023-10-09T12:52:46;18.95;;;11.18;;
49488;SDS011;35382;51.484;11.476;2023-10-09T12:55:11;18.42;;;11.40;;
49488;SDS011;35382;51.484;11.476;2023-10-09T12:57:36;21.77;;;12.32;;
49488;SDS011;35382;51.484;11.476;2023-10-09T13:00:02;21.52;;;12.82;;
49488;SDS011;35382;51.484;11.476;2023-10-09T13:02:28;25.42;;;13.65;;
49488;SDS011;35382;51.484;11.476;2023-10-09T13:04:54;26.73;;;15.50;;
49488;SDS011;35382;51.484;11.476;2023-10-09T13:07:20;26.25;;;15.68;;
49488;SDS011;35382;51.484;11.476;2023-10-09T13:09:46;25.38;;;15.60;;
49488;SDS011;35382;51.484;11.476;2023-10-09T13:12:11;24.83;;;14.43;;
49488;SDS011;35382;51.484;11.476;2023-10-09T13:14:36;23.67;;;14.48;;
49488;SDS011;35382;51.484;11.476;2023-10-09T13:17:02;27.17;;;14.75;;
49488;SDS011;35382;51.484;11.476;2023-10-09T13:19:27;25.52;;;14.85;;
49488;SDS011;35382;51.484;11.476;2023-10-09T13:21:53;28.58;;;16.40;;
49488;SDS011;35382;51.484;11.476;2023-10-09T13:24:18;26.80;;;15.02;;
49488;SDS011;35382;51.484;11.476;2023-10-09T13:26:44;22.13;;;13.57;;
49488;SDS011;35382;51.484;11.476;2023-10-09T13:29:10;30.25;;;14.65;;
49488;SDS011;35382;51.484;11.476;2023-10-09T13:31:36;25.17;;;14.38;;
49488;SDS011;35382;51.484;11.476;2023-10-09T13:34:02;24.25;;;15.18;;
49488;SDS011;35382;51.484;11.476;2023-10-09T13:36:28;29.67;;;16.45;;
49488;SDS011;35382;51.484;11.476;2023-10-09T13:38:54;30.38;;;17.50;;
49488;SDS011;35382;51.484;11.476;2023-10-09T13:41:20;30.30;;;17.88;;
49488;SDS011;35382;51.484;11.476;2023-10-09T13:43:45;32.70;;;20.48;;
49488;SDS011;35382;51.484;11.476;2023-10-09T13:46:11;37.08;;;21.10;;
49488;SDS011;35382;51.484;11.476;2023-10-09T13:48:40;41.80;;;21.75;;
49488;SDS011;35382;51.484;11.476;2023-10-09T13:51:07;37.10;;;20.45;;
49488;SDS011;35382;51.484;11.476;2023-10-09T13:53:33;38.20;;;22.08;;
49488;SDS011;35382;51.484;11.476;2023-10-09T13:55:59;35.88;;;20.05;;
49488;SDS011;35382;51.484;11.476;2023-10-09T13:58:24;34.47;;;18.92;;
49488;SDS011;35382;51.484;11.476;2023-10-09T14:00:50;30.02;;;16.90;;
49488;SDS011;35382;51.484;11.476;2023-10-09T14:03:15;31.50;;;18.02;;
49488;SDS011;35382;51.484;11.476;2023-10-09T14:05:41;26.17;;;15.73;;
49488;SDS011;35382;51.484;11.476;2023-10-09T14:08:06;29.35;;;17.40;;
49488;SDS011;35382;51.484;11.476;2023-10-09T14:10:32;29.83;;;16.30;;
49488;SDS011;35382;51.484;11.476;2023-10-09T14:13:06;27.00;;;16.23;;
49488;SDS011;35382;51.484;11.476;2023-10-09T14:15:31;32.08;;;17.63;;
49488;SDS011;35382;51.484;11.476;2023-10-09T14:17:59;28.70;;;17.08;;
49488;SDS011;35382;51.484;11.476;2023-10-09T14:20:25;28.55;;;16.75;;
49488;SDS011;35382;51.484;11.476;2023-10-09T14:22:50;31.60;;;18.65;;